Time;durP1;ratioP1;P1;durP2;ratioP2;P2;SDS_P1;SDS_P2;PMS_P1;PMS_P2;Temp;Humidity;BMP_temperature;BMP_pressure;BME280_temperature;BME280_humidity;BME280_pressure;Samples;Min_cycle;Max_cycle;Signal;HPM_P1;HPM_P2
2022/10/08 00:01:31;;;;;;;;;;;14.10;99.90;;;;;;5069558;28;19964;-69
2022/10/08 00:04:00;;;;;;;;;;;14.10;99.90;;;;;;5068709;28;20009;-73
2022/10/08 00:06:29;;;;;;;;;;;14.10;99.90;;;;;;5072629;28;19968;-73
2022/10/08 00:08:58;;;;;;;;;;;14.10;99.90;;;;;;5068041;28;19970;-73
2022/10/08 00:11:26;;;;;;;;;;;14.10;99.90;;;;;;5067871;28;19979;-73
2022/10/08 00:13:55;;;;;;;;;;;14.00;99.90;;;;;;5070653;28;19967;-73
2022/10/08 00:16:24;;;;;;;;;;;13.90;99.90;;;;;;5064750;28;19991;-73
2022/10/08 00:18:54;;;;;;;;;;;13.90;99.90;;;;;;5073212;28;19979;-73
2022/10/08 00:21:24;;;;;;;;;;;13.90;99.90;;;;;;5055150;28;20357;-73
2022/10/08 00:23:52;;;;;;;;;;;13.90;99.90;;;;;;5052999;28;19968;-73
2022/10/08 00:26:22;;;;;;;;;;;14.00;99.90;;;;;;5067504;28;19982;-73
2022/10/08 00:28:50;;;;;;;;;;;13.90;99.90;;;;;;5091265;22;20061;-62
2022/10/08 00:31:20;;;;;;;;;;;14.00;99.90;;;;;;5051508;28;20479;-63
2022/10/08 00:33:49;;;;;;;;;;;14.00;99.90;;;;;;5047009;28;19972;-62
2022/10/08 00:36:17;;;;;;;;;;;14.00;99.90;;;;;;5043147;28;20094;-63
2022/10/08 00:38:46;;;;;;;;;;;14.10;99.90;;;;;;5042551;28;19982;-63
2022/10/08 00:41:17;;;;;;;;;;;14.20;99.90;;;;;;5044341;28;20344;-62
2022/10/08 00:43:46;;;;;;;;;;;14.10;99.90;;;;;;5048483;28;19974;-62
2022/10/08 00:46:19;;;;;;;;;;;14.20;99.90;;;;;;5051161;28;19967;-63
2022/10/08 00:48:47;;;;;;;;;;;14.20;99.90;;;;;;5051783;28;19968;-63
2022/10/08 00:51:15;;;;;;;;;;;14.20;99.90;;;;;;5052144;28;19968;-62
2022/10/08 00:53:42;;;;;;;;;;;14.30;99.90;;;;;;5051631;28;19972;-63
2022/10/08 00:56:12;;;;;;;;;;;14.30;99.90;;;;;;5048770;28;19967;-62
2022/10/08 00:58:41;;;;;;;;;;;14.40;99.90;;;;;;5036407;28;19970;-62
2022/10/08 01:01:09;;;;;;;;;;;14.40;99.90;;;;;;5052549;28;19996;-62
2022/10/08 01:03:37;;;;;;;;;;;14.40;99.90;;;;;;5049899;28;19971;-62
2022/10/08 01:06:09;;;;;;;;;;;14.40;99.90;;;;;;5051506;28;20610;-63
2022/10/08 01:08:40;;;;;;;;;;;14.50;99.90;;;;;;5044563;28;19963;-62
2022/10/08 01:11:11;;;;;;;;;;;14.50;99.90;;;;;;5046644;28;19994;-63
2022/10/08 01:13:46;;;;;;;;;;;14.50;99.90;;;;;;5040020;28;20349;-63
2022/10/08 01:16:20;;;;;;;;;;;14.60;99.90;;;;;;5047348;28;19968;-63
2022/10/08 01:18:52;;;;;;;;;;;14.60;99.90;;;;;;5043836;28;19967;-62
2022/10/08 01:21:26;;;;;;;;;;;14.60;99.90;;;;;;5043141;28;19964;-62
2022/10/08 01:24:02;;;;;;;;;;;14.60;99.90;;;;;;5051788;28;20449;-63
2022/10/08 01:26:52;;;;;;;;;;;14.70;99.90;;;;;;5059544;28;19971;-63
2022/10/08 01:29:24;;;;;;;;;;;14.70;99.90;;;;;;5036054;28;19964;-62
2022/10/08 01:31:53;;;;;;;;;;;14.70;99.90;;;;;;5046963;28;19990;-63
2022/10/08 01:34:23;;;;;;;;;;;14.70;99.90;;;;;;5047631;28;19974;-63
2022/10/08 01:36:53;;;;;;;;;;;14.70;99.90;;;;;;5050976;28;19974;-63
2022/10/08 01:39:22;;;;;;;;;;;14.60;99.90;;;;;;5048390;28;19967;-62
2022/10/08 01:41:52;;;;;;;;;;;14.60;99.90;;;;;;5046812;28;20424;-63
2022/10/08 01:44:22;;;;;;;;;;;14.60;99.90;;;;;;5051065;28;20010;-62
2022/10/08 01:46:52;;;;;;;;;;;14.50;99.90;;;;;;5042944;28;19968;-62
2022/10/08 01:49:21;;;;;;;;;;;14.40;99.90;;;;;;5048226;28;20009;-63
2022/10/08 01:51:51;;;;;;;;;;;14.30;99.90;;;;;;5050049;28;19968;-63
2022/10/08 01:54:20;;;;;;;;;;;14.10;99.90;;;;;;5046988;28;19973;-62
2022/10/08 01:56:49;;;;;;;;;;;14.00;99.90;;;;;;5042972;28;19987;-63
2022/10/08 01:59:19;;;;;;;;;;;14.00;99.90;;;;;;5043229;28;19964;-63
2022/10/08 02:01:51;;;;;;;;;;;13.90;99.90;;;;;;5051318;28;20436;-62
2022/10/08 02:04:33;;;;;;;;;;;13.80;99.90;;;;;;5043360;28;19975;-62
2022/10/08 02:07:02;;;;;;;;;;;13.70;99.90;;;;;;5044688;28;20087;-63
2022/10/08 02:09:32;;;;;;;;;;;13.80;99.90;;;;;;5045922;28;19970;-63
2022/10/08 02:11:59;;;;;;;;;;;13.70;99.90;;;;;;5048950;28;19968;-63
2022/10/08 02:14:28;;;;;;;;;;;13.70;99.90;;;;;;5040746;28;20433;-62
2022/10/08 02:16:59;;;;;;;;;;;13.60;99.90;;;;;;5050168;28;19979;-63
2022/10/08 02:19:33;;;;;;;;;;;13.60;99.90;;;;;;5055579;28;19967;-63
2022/10/08 02:22:03;;;;;;;;;;;13.60;99.90;;;;;;5051543;28;19973;-63
2022/10/08 02:24:33;;;;;;;;;;;13.50;99.90;;;;;;5052740;28;19963;-62
2022/10/08 02:27:02;;;;;;;;;;;13.60;99.90;;;;;;5050772;28;19990;-62
2022/10/08 02:29:32;;;;;;;;;;;13.50;99.90;;;;;;5054754;28;20055;-62
2022/10/08 02:32:05;;;;;;;;;;;13.40;99.90;;;;;;5051554;28;19968;-62
2022/10/08 02:34:37;;;;;;;;;;;13.30;99.90;;;;;;5045475;28;19975;-63
2022/10/08 02:37:09;;;;;;;;;;;13.20;99.90;;;;;;5051201;28;19974;-62
2022/10/08 02:39:38;;;;;;;;;;;13.20;99.90;;;;;;5053852;28;19978;-63
2022/10/08 02:42:09;;;;;;;;;;;13.20;99.90;;;;;;5048011;28;19982;-62
2022/10/08 02:44:39;;;;;;;;;;;13.10;99.90;;;;;;5054325;28;20023;-62
2022/10/08 02:47:10;;;;;;;;;;;13.10;99.90;;;;;;5052591;28;19968;-62
2022/10/08 02:49:40;;;;;;;;;;;13.10;99.90;;;;;;5053994;28;19967;-63
2022/10/08 02:52:09;;;;;;;;;;;13.10;99.90;;;;;;5049810;28;19968;-62
2022/10/08 02:54:38;;;;;;;;;;;13.00;99.90;;;;;;5046677;28;19964;-62
2022/10/08 02:57:10;;;;;;;;;;;13.00;99.90;;;;;;5051677;28;19975;-63
2022/10/08 02:59:38;;;;;;;;;;;12.90;99.90;;;;;;5051966;28;20439;-62
2022/10/08 03:02:06;;;;;;;;;;;12.90;99.90;;;;;;5051279;28;20075;-63
2022/10/08 03:04:36;;;;;;;;;;;12.80;99.90;;;;;;5046765;28;19971;-62
2022/10/08 03:07:05;;;;;;;;;;;12.70;99.90;;;;;;5050443;28;19962;-63
2022/10/08 03:09:35;;;;;;;;;;;12.80;99.90;;;;;;5049068;28;19971;-63
2022/10/08 03:12:04;;;;;;;;;;;12.80;99.90;;;;;;5053117;28;19971;-63
2022/10/08 03:14:33;;;;;;;;;;;12.70;99.90;;;;;;5050052;28;19972;-63
2022/10/08 03:17:01;;;;;;;;;;;12.60;99.90;;;;;;5050684;28;20341;-63
2022/10/08 03:19:29;;;;;;;;;;;12.70;99.90;;;;;;5046437;28;20059;-63
2022/10/08 03:21:57;;;;;;;;;;;12.60;99.90;;;;;;5049291;28;19972;-63
2022/10/08 03:24:26;;;;;;;;;;;12.60;99.90;;;;;;5049058;28;19965;-63
2022/10/08 03:26:54;;;;;;;;;;;12.60;99.90;;;;;;5046427;28;19964;-63
2022/10/08 03:29:21;;;;;;;;;;;12.50;99.90;;;;;;5052392;28;19968;-62
2022/10/08 03:31:49;;;;;;;;;;;12.60;99.90;;;;;;5049859;28;19967;-63
2022/10/08 03:34:17;;;;;;;;;;;12.50;99.90;;;;;;5047038;28;19974;-62
2022/10/08 03:36:45;;;;;;;;;;;12.50;99.90;;;;;;5052173;28;19968;-62
2022/10/08 03:39:13;;;;;;;;;;;12.50;99.90;;;;;;5048263;28;19964;-63
2022/10/08 03:41:42;;;;;;;;;;;12.40;99.90;;;;;;5049943;28;19968;-62
2022/10/08 03:44:11;;;;;;;;;;;12.50;99.90;;;;;;5051989;28;20529;-62
2022/10/08 03:46:39;;;;;;;;;;;12.50;99.90;;;;;;5050261;28;19968;-62
2022/10/08 03:49:06;;;;;;;;;;;12.40;99.90;;;;;;5053639;28;20376;-62
2022/10/08 03:51:34;;;;;;;;;;;12.40;99.90;;;;;;5046346;28;19972;-62
2022/10/08 03:54:02;;;;;;;;;;;12.30;99.90;;;;;;5052043;28;20429;-62
2022/10/08 03:56:29;;;;;;;;;;;12.20;99.90;;;;;;5047025;28;19968;-62
2022/10/08 03:58:59;;;;;;;;;;;12.20;99.90;;;;;;5048910;28;19999;-63
2022/10/08 04:01:27;;;;;;;;;;;12.20;99.90;;;;;;5045370;28;20448;-63
2022/10/08 04:03:55;;;;;;;;;;;12.10;99.90;;;;;;5051690;28;19969;-63
2022/10/08 04:06:23;;;;;;;;;;;12.20;99.90;;;;;;5051026;28;19964;-63
2022/10/08 04:08:51;;;;;;;;;;;12.20;99.90;;;;;;5046535;28;19968;-62
2022/10/08 04:11:19;;;;;;;;;;;12.20;99.90;;;;;;5045813;28;19964;-62
2022/10/08 04:13:47;;;;;;;;;;;12.20;99.90;;;;;;5044032;28;19965;-62
2022/10/08 04:16:16;;;;;;;;;;;12.30;99.90;;;;;;5064738;28;19970;-63
2022/10/08 04:18:45;;;;;;;;;;;12.30;99.90;;;;;;5065173;28;20079;-63
2022/10/08 04:21:13;;;;;;;;;;;12.30;99.90;;;;;;5053039;28;19968;-63
2022/10/08 04:23:42;;;;;;;;;;;12.30;99.90;;;;;;5047890;28;20448;-62
2022/10/08 04:26:10;;;;;;;;;;;12.40;99.90;;;;;;5053034;28;19963;-63
2022/10/08 04:28:39;;;;;;;;;;;12.30;99.90;;;;;;5052501;28;19964;-63
2022/10/08 04:31:08;;;;;;;;;;;12.30;99.90;;;;;;5060445;28;19967;-63
2022/10/08 04:33:37;;;;;;;;;;;12.20;99.90;;;;;;5048821;28;19971;-62
2022/10/08 04:36:07;;;;;;;;;;;12.10;99.90;;;;;;5058304;28;19967;-62
2022/10/08 04:38:34;;;;;;;;;;;12.10;99.90;;;;;;5052510;28;19964;-62
2022/10/08 04:41:03;;;;;;;;;;;12.00;99.90;;;;;;5050589;28;19968;-62
2022/10/08 04:43:31;;;;;;;;;;;12.00;99.90;;;;;;5052953;28;19971;-62
2022/10/08 04:45:58;;;;;;;;;;;12.00;99.90;;;;;;5048482;28;20476;-62
2022/10/08 04:48:26;;;;;;;;;;;12.00;99.90;;;;;;5052434;28;19982;-63
2022/10/08 04:50:56;;;;;;;;;;;12.00;99.90;;;;;;5052443;28;19974;-62
2022/10/08 04:53:25;;;;;;;;;;;11.90;99.90;;;;;;5052783;28;19975;-63
2022/10/08 04:55:53;;;;;;;;;;;11.90;99.90;;;;;;5052432;28;20473;-62
2022/10/08 04:58:21;;;;;;;;;;;11.90;99.90;;;;;;5038044;28;19968;-63
2022/10/08 05:00:49;;;;;;;;;;;11.80;99.90;;;;;;5032427;28;19979;-63
2022/10/08 05:03:16;;;;;;;;;;;11.70;99.90;;;;;;5032556;28;20074;-62
2022/10/08 05:05:45;;;;;;;;;;;11.80;99.90;;;;;;5044941;28;19972;-62
2022/10/08 05:08:14;;;;;;;;;;;11.70;99.90;;;;;;5052254;28;19968;-62
2022/10/08 05:10:47;;;;;;;;;;;11.80;99.90;;;;;;5046361;28;20405;-65
2022/10/08 05:13:15;;;;;;;;;;;11.80;99.90;;;;;;5041063;28;19976;-64
2022/10/08 05:15:43;;;;;;;;;;;11.70;99.90;;;;;;5041056;28;19976;-64
2022/10/08 05:18:11;;;;;;;;;;;11.60;99.90;;;;;;5042579;28;20452;-64
2022/10/08 05:20:39;;;;;;;;;;;11.50;99.90;;;;;;5041985;28;19968;-63
2022/10/08 05:23:07;;;;;;;;;;;11.30;99.90;;;;;;5041619;28;19983;-64
2022/10/08 05:25:36;;;;;;;;;;;11.10;99.90;;;;;;5042303;28;19964;-63
2022/10/08 05:28:04;;;;;;;;;;;11.00;99.90;;;;;;5041454;28;20468;-64
2022/10/08 05:30:32;;;;;;;;;;;10.90;99.90;;;;;;5040619;28;20022;-63
2022/10/08 05:32:59;;;;;;;;;;;10.80;99.90;;;;;;5041370;28;19992;-63
2022/10/08 05:35:27;;;;;;;;;;;10.70;99.90;;;;;;5041581;28;20368;-63
2022/10/08 05:37:55;;;;;;;;;;;10.70;99.90;;;;;;5043027;28;20388;-63
2022/10/08 05:40:23;;;;;;;;;;;10.50;99.90;;;;;;5042682;28;19979;-62
2022/10/08 05:42:52;;;;;;;;;;;10.60;99.90;;;;;;5040328;28;19979;-64
2022/10/08 05:45:19;;;;;;;;;;;10.50;99.90;;;;;;5041986;28;20475;-64
2022/10/08 05:47:48;;;;;;;;;;;10.50;99.90;;;;;;5041643;28;19976;-64
2022/10/08 05:50:16;;;;;;;;;;;10.60;99.90;;;;;;5042393;28;19974;-64
2022/10/08 05:52:43;;;;;;;;;;;10.60;99.90;;;;;;5039591;28;19999;-64
2022/10/08 05:55:12;;;;;;;;;;;10.50;99.90;;;;;;5042326;28;19976;-64
2022/10/08 05:57:39;;;;;;;;;;;10.50;99.90;;;;;;5041316;28;20002;-63
2022/10/08 06:00:09;;;;;;;;;;;10.50;99.90;;;;;;5041239;28;19979;-62
2022/10/08 06:02:37;;;;;;;;;;;10.50;99.90;;;;;;5038915;28;19964;-63
2022/10/08 06:05:05;;;;;;;;;;;10.50;99.90;;;;;;5041538;28;20393;-63
2022/10/08 06:07:33;;;;;;;;;;;10.50;99.90;;;;;;5041726;28;20063;-63
2022/10/08 06:10:01;;;;;;;;;;;10.40;99.90;;;;;;5042097;28;19979;-64
2022/10/08 06:12:29;;;;;;;;;;;10.40;99.90;;;;;;5039710;28;19990;-64
2022/10/08 06:14:56;;;;;;;;;;;10.50;99.90;;;;;;5042232;28;19972;-63
2022/10/08 06:17:25;;;;;;;;;;;10.50;99.90;;;;;;5040433;28;20681;-64
2022/10/08 06:19:53;;;;;;;;;;;10.50;99.90;;;;;;5042329;28;20353;-63
2022/10/08 06:22:21;;;;;;;;;;;10.50;99.90;;;;;;5039452;28;20441;-64
2022/10/08 06:24:48;;;;;;;;;;;10.50;99.90;;;;;;5042338;28;19971;-64
2022/10/08 06:27:16;;;;;;;;;;;10.50;99.90;;;;;;5040441;28;19976;-63
2022/10/08 06:29:44;;;;;;;;;;;10.60;99.90;;;;;;5070315;22;19976;-64
2022/10/08 06:32:11;;;;;;;;;;;10.60;99.90;;;;;;5058037;28;19976;-64
2022/10/08 06:34:41;;;;;;;;;;;10.60;99.90;;;;;;5061774;28;20464;-64
2022/10/08 06:37:09;;;;;;;;;;;10.60;99.90;;;;;;5060951;28;19991;-64
2022/10/08 06:39:36;;;;;;;;;;;10.60;99.90;;;;;;5061097;28;19991;-64
2022/10/08 06:42:04;;;;;;;;;;;10.70;99.90;;;;;;5057695;28;19964;-64
2022/10/08 06:44:32;;;;;;;;;;;10.70;99.90;;;;;;5061936;28;20579;-64
2022/10/08 06:46:59;;;;;;;;;;;10.70;99.90;;;;;;5062115;28;20341;-64
2022/10/08 06:49:27;;;;;;;;;;;10.80;99.90;;;;;;5062036;28;19972;-64
2022/10/08 06:51:56;;;;;;;;;;;10.80;99.90;;;;;;5059221;28;19987;-64
2022/10/08 06:54:26;;;;;;;;;;;10.80;99.90;;;;;;5058914;28;19975;-64
2022/10/08 06:56:54;;;;;;;;;;;10.90;99.90;;;;;;5063757;28;19976;-64
2022/10/08 06:59:22;;;;;;;;;;;11.00;99.90;;;;;;5064916;28;19995;-64
2022/10/08 07:01:49;;;;;;;;;;;11.10;99.90;;;;;;5064162;28;19976;-64
2022/10/08 07:04:17;;;;;;;;;;;11.20;99.90;;;;;;5062859;28;20026;-64
2022/10/08 07:06:45;;;;;;;;;;;11.30;99.90;;;;;;5065227;28;19975;-64
2022/10/08 07:09:14;;;;;;;;;;;11.40;99.90;;;;;;5063425;28;19982;-64
2022/10/08 07:11:42;;;;;;;;;;;11.50;99.90;;;;;;5063792;28;19983;-65
2022/10/08 07:14:09;;;;;;;;;;;11.50;99.90;;;;;;5064318;28;19968;-66
2022/10/08 07:16:37;;;;;;;;;;;11.50;99.90;;;;;;5064464;28;19967;-64
2022/10/08 07:19:05;;;;;;;;;;;11.60;99.90;;;;;;5061812;28;20013;-65
2022/10/08 07:21:33;;;;;;;;;;;11.50;99.90;;;;;;5064850;28;20310;-64
2022/10/08 07:24:01;;;;;;;;;;;11.50;99.90;;;;;;5062589;28;19972;-65
2022/10/08 07:26:33;;;;;;;;;;;11.60;99.90;;;;;;5061131;28;19971;-65
2022/10/08 07:29:01;;;;;;;;;;;11.70;99.90;;;;;;5063659;28;19982;-64
2022/10/08 07:31:30;;;;;;;;;;;11.80;99.90;;;;;;5062683;28;19972;-64
2022/10/08 07:33:58;;;;;;;;;;;12.00;99.90;;;;;;5064661;28;20541;-64
2022/10/08 07:36:26;;;;;;;;;;;12.20;99.90;;;;;;5063517;28;20025;-64
2022/10/08 07:38:54;;;;;;;;;;;12.30;99.90;;;;;;5064796;28;19972;-64
2022/10/08 07:41:22;;;;;;;;;;;12.50;99.90;;;;;;5062435;28;19982;-64
2022/10/08 07:43:51;;;;;;;;;;;12.70;99.90;;;;;;5064659;28;19971;-64
2022/10/08 07:46:19;;;;;;;;;;;12.90;99.90;;;;;;5064322;28;19978;-64
2022/10/08 07:48:47;;;;;;;;;;;13.10;99.90;;;;;;5064707;28;20087;-64
2022/10/08 07:51:16;;;;;;;;;;;13.30;99.90;;;;;;5062291;28;19976;-64
2022/10/08 07:53:44;;;;;;;;;;;13.50;99.90;;;;;;5064156;28;19998;-64
2022/10/08 07:56:14;;;;;;;;;;;13.70;99.90;;;;;;5063714;28;20028;-64
2022/10/08 07:58:42;;;;;;;;;;;13.80;99.90;;;;;;5063094;28;20018;-64
2022/10/08 08:01:12;;;;;;;;;;;14.00;99.90;;;;;;5061461;28;19971;-65
2022/10/08 08:03:40;;;;;;;;;;;14.10;99.90;;;;;;5063163;28;19982;-64
2022/10/08 08:06:09;;;;;;;;;;;14.20;99.90;;;;;;5063323;28;19963;-64
2022/10/08 08:08:38;;;;;;;;;;;14.20;99.90;;;;;;5062233;28;19964;-64
2022/10/08 08:11:06;;;;;;;;;;;14.40;99.90;;;;;;5060843;28;19988;-64
2022/10/08 08:13:35;;;;;;;;;;;14.70;99.90;;;;;;5064088;28;20078;-65
2022/10/08 08:16:05;;;;;;;;;;;14.50;99.90;;;;;;5063491;28;20359;-65
2022/10/08 08:18:35;;;;;;;;;;;14.50;99.90;;;;;;5063570;28;20009;-64
2022/10/08 08:21:05;;;;;;;;;;;14.30;99.90;;;;;;5061222;28;19999;-65
2022/10/08 08:23:33;;;;;;;;;;;14.20;99.90;;;;;;5062228;28;20353;-65
2022/10/08 08:26:01;;;;;;;;;;;14.20;99.90;;;;;;5062960;28;19979;-65
2022/10/08 08:28:29;;;;;;;;;;;14.10;99.90;;;;;;5062701;28;21639;-65
2022/10/08 08:31:05;;;;;;;;;;;14.10;99.90;;;;;;5063531;28;19988;-64
2022/10/08 08:33:34;;;;;;;;;;;14.10;99.90;;;;;;5062765;28;19964;-65
2022/10/08 08:36:02;;;;;;;;;;;14.20;99.90;;;;;;5063221;28;20474;-64
2022/10/08 08:38:30;;;;;;;;;;;14.30;99.90;;;;;;5063247;28;20326;-63
2022/10/08 08:41:05;;;;;;;;;;;14.40;99.90;;;;;;5063743;28;19990;-63
2022/10/08 08:43:39;;;;;;;;;;;14.40;99.90;;;;;;5061225;28;19967;-64
2022/10/08 08:46:07;;;;;;;;;;;14.40;99.90;;;;;;5061739;28;19972;-63
2022/10/08 08:48:37;;;;;;;;;;;14.40;99.90;;;;;;5063546;28;20056;-64
2022/10/08 08:51:05;;;;;;;;;;;14.40;99.90;;;;;;5060499;28;19974;-64
2022/10/08 08:53:33;;;;;;;;;;;14.50;99.90;;;;;;5069943;28;20443;-63
2022/10/08 08:56:03;;;;;;;;;;;14.70;99.90;;;;;;5071617;28;19967;-63
2022/10/08 08:58:34;;;;;;;;;;;14.80;99.90;;;;;;5070448;28;19987;-64
2022/10/08 09:01:05;;;;;;;;;;;14.90;99.90;;;;;;5069849;28;19970;-64
2022/10/08 09:03:34;;;;;;;;;;;15.10;99.90;;;;;;5071201;28;20363;-64
2022/10/08 09:06:08;;;;;;;;;;;15.10;99.90;;;;;;5070671;28;19963;-64
2022/10/08 09:08:40;;;;;;;;;;;15.20;99.90;;;;;;5071684;28;19967;-64
2022/10/08 09:11:12;;;;;;;;;;;15.10;99.90;;;;;;5061178;28;19968;-65
2022/10/08 09:13:44;;;;;;;;;;;15.00;99.90;;;;;;5069524;28;20021;-64
2022/10/08 09:16:12;;;;;;;;;;;14.90;99.90;;;;;;5071535;28;20424;-64
2022/10/08 09:18:41;;;;;;;;;;;14.80;99.90;;;;;;5071947;28;20004;-63
2022/10/08 09:21:10;;;;;;;;;;;14.70;99.90;;;;;;5071645;28;19982;-63
2022/10/08 09:23:37;;;;;;;;;;;14.70;99.90;;;;;;5072300;28;19971;-64
2022/10/08 09:26:14;;;;;;;;;;;14.70;99.90;;;;;;5071873;28;19974;-64
2022/10/08 09:28:43;;;;;;;;;;;14.80;99.90;;;;;;5072237;28;19970;-63
2022/10/08 09:31:13;;;;;;;;;;;14.80;99.90;;;;;;5071221;28;19971;-64
2022/10/08 09:33:41;;;;;;;;;;;14.90;99.90;;;;;;5071949;28;19975;-62
2022/10/08 09:36:11;;;;;;;;;;;15.00;99.90;;;;;;5071991;28;20132;-63
2022/10/08 09:38:39;;;;;;;;;;;15.20;99.90;;;;;;5071779;28;20054;-63
2022/10/08 09:41:08;;;;;;;;;;;15.30;99.90;;;;;;5071411;28;20333;-63
2022/10/08 09:43:36;;;;;;;;;;;15.40;99.90;;;;;;5070413;28;20033;-63
2022/10/08 09:46:10;;;;;;;;;;;15.50;99.90;;;;;;5071860;28;19966;-63
2022/10/08 09:48:40;;;;;;;;;;;15.60;99.90;;;;;;5071835;28;19970;-63
2022/10/08 09:51:13;;;;;;;;;;;15.70;99.90;;;;;;5071254;28;19973;-63
2022/10/08 09:53:42;;;;;;;;;;;15.80;99.90;;;;;;5071650;28;19970;-63
2022/10/08 09:56:11;;;;;;;;;;;16.00;99.90;;;;;;5072021;28;19975;-63
2022/10/08 09:58:47;;;;;;;;;;;15.90;99.90;;;;;;5071303;28;19973;-63
2022/10/08 10:01:16;;;;;;;;;;;16.00;99.90;;;;;;5071055;28;19966;-63
2022/10/08 10:03:48;;;;;;;;;;;16.00;99.90;;;;;;5071644;28;19974;-63
2022/10/08 10:06:24;;;;;;;;;;;16.00;99.90;;;;;;5071639;28;19967;-63
2022/10/08 10:08:54;;;;;;;;;;;16.00;99.90;;;;;;5071613;28;19967;-63
2022/10/08 10:11:26;;;;;;;;;;;16.30;99.90;;;;;;5071511;28;20424;-65
2022/10/08 10:13:54;;;;;;;;;;;16.40;99.90;;;;;;5071670;28;19973;-66
2022/10/08 10:16:24;;;;;;;;;;;16.60;99.90;;;;;;5071533;28;19967;-66
2022/10/08 10:18:54;;;;;;;;;;;16.70;99.90;;;;;;5071442;28;19966;-65
2022/10/08 10:21:29;;;;;;;;;;;16.80;99.90;;;;;;5071113;28;20435;-66
2022/10/08 10:24:02;;;;;;;;;;;16.90;99.90;;;;;;5072344;28;20523;-66
2022/10/08 10:26:33;;;;;;;;;;;16.90;99.90;;;;;;5074134;28;20466;-66
2022/10/08 10:29:04;;;;;;;;;;;16.90;99.90;;;;;;5071410;28;19967;-66
2022/10/08 10:31:34;;;;;;;;;;;16.80;99.90;;;;;;5072752;28;19973;-66
2022/10/08 10:34:06;;;;;;;;;;;16.80;99.90;;;;;;5075217;28;19972;-66
2022/10/08 10:36:38;;;;;;;;;;;17.00;99.90;;;;;;5075168;28;19970;-63
2022/10/08 10:39:12;;;;;;;;;;;17.00;99.90;;;;;;5075243;28;19992;-63
2022/10/08 10:41:43;;;;;;;;;;;17.30;99.90;;;;;;5074725;28;19970;-66
2022/10/08 10:44:12;;;;;;;;;;;17.90;99.90;;;;;;5075175;28;19977;-63
2022/10/08 10:46:41;;;;;;;;;;;18.40;99.90;;;;;;5075242;28;19971;-66
2022/10/08 10:49:13;;;;;;;;;;;18.30;99.90;;;;;;5074816;28;19973;-66
2022/10/08 10:51:55;;;;;;;;;;;18.20;99.90;;;;;;5074542;28;19971;-66
2022/10/08 10:54:34;;;;;;;;;;;18.30;99.90;;;;;;5075085;28;20346;-64
2022/10/08 10:57:04;;;;;;;;;;;18.20;99.90;;;;;;5074902;28;19977;-63
2022/10/08 10:59:40;;;;;;;;;;;18.30;99.90;;;;;;5074565;28;20426;-63
2022/10/08 11:02:12;;;;;;;;;;;18.20;99.90;;;;;;5074560;28;20447;-64
2022/10/08 11:04:44;;;;;;;;;;;18.50;99.90;;;;;;5075017;28;19974;-64
2022/10/08 11:07:22;;;;;;;;;;;18.70;99.90;;;;;;5074422;28;19973;-63
2022/10/08 11:09:50;;;;;;;;;;;18.90;99.90;;;;;;5074273;28;19966;-64
2022/10/08 11:12:24;;;;;;;;;;;19.00;99.90;;;;;;5074516;28;19970;-64
2022/10/08 11:14:57;;;;;;;;;;;19.10;99.90;;;;;;5074544;28;19967;-64
2022/10/08 11:17:33;;;;;;;;;;;19.20;99.90;;;;;;5074521;28;20347;-64
2022/10/08 11:20:10;;;;;;;;;;;19.10;99.90;;;;;;5074207;28;19977;-64
2022/10/08 11:22:42;;;;;;;;;;;19.10;99.90;;;;;;5074278;28;20352;-64
2022/10/08 11:25:18;;;;;;;;;;;18.90;99.90;;;;;;5074572;28;20196;-64
2022/10/08 11:27:52;;;;;;;;;;;18.80;99.90;;;;;;5074151;28;20447;-64
2022/10/08 11:30:21;;;;;;;;;;;18.80;99.90;;;;;;5073711;28;20342;-66
2022/10/08 11:32:51;;;;;;;;;;;18.30;99.90;;;;;;5074014;28;19974;-67
2022/10/08 11:35:25;;;;;;;;;;;18.00;99.90;;;;;;5074289;28;19970;-66
2022/10/08 11:37:58;;;;;;;;;;;18.00;99.90;;;;;;5073984;28;20004;-65
2022/10/08 11:40:29;;;;;;;;;;;18.10;99.90;;;;;;5073768;28;20439;-66
2022/10/08 11:42:58;;;;;;;;;;;18.10;99.90;;;;;;5072772;28;20061;-66
2022/10/08 11:45:30;;;;;;;;;;;18.20;99.90;;;;;;5074012;28;19967;-66
2022/10/08 11:47:58;;;;;;;;;;;18.30;99.90;;;;;;5074104;28;20442;-66
2022/10/08 11:50:27;;;;;;;;;;;18.10;99.90;;;;;;5073581;28;19989;-66
2022/10/08 11:52:58;;;;;;;;;;;18.10;99.90;;;;;;5074226;28;19970;-66
2022/10/08 11:55:28;;;;;;;;;;;17.70;99.90;;;;;;5073947;28;20420;-66
2022/10/08 11:57:57;;;;;;;;;;;17.70;99.90;;;;;;5073571;28;19973;-66
2022/10/08 12:00:41;;;;;;;;;;;17.60;99.90;;;;;;5073374;28;20435;-66
2022/10/08 12:03:19;;;;;;;;;;;17.70;99.90;;;;;;5073647;28;20069;-65
2022/10/08 12:05:49;;;;;;;;;;;17.70;99.90;;;;;;5073653;28;20333;-66
2022/10/08 12:08:36;;;;;;;;;;;17.90;99.90;;;;;;5073691;28;19970;-66
2022/10/08 12:11:18;;;;;;;;;;;18.10;99.90;;;;;;5073504;28;19970;-66
2022/10/08 12:14:07;;;;;;;;;;;18.20;99.90;;;;;;5073155;28;20442;-66
2022/10/08 12:16:50;;;;;;;;;;;18.10;99.90;;;;;;5073058;28;19977;-66
2022/10/08 12:19:32;;;;;;;;;;;18.30;99.90;;;;;;5073193;28;19984;-66
2022/10/08 12:22:01;;;;;;;;;;;18.30;99.90;;;;;;5072883;28;19970;-66
2022/10/08 12:24:45;;;;;;;;;;;18.30;99.90;;;;;;5073170;28;20401;-66
2022/10/08 12:27:20;;;;;;;;;;;18.00;99.90;;;;;;5073245;28;19970;-66
2022/10/08 12:29:56;;;;;;;;;;;17.70;99.90;;;;;;5095634;22;19974;-66
2022/10/08 12:32:24;;;;;;;;;;;17.50;99.90;;;;;;5072587;28;19967;-66
2022/10/08 12:34:52;;;;;;;;;;;17.40;99.90;;;;;;5072883;28;20431;-66
2022/10/08 12:37:44;;;;;;;;;;;17.40;99.90;;;;;;5073072;28;20055;-66
2022/10/08 12:40:19;;;;;;;;;;;17.20;99.90;;;;;;5053259;28;19975;-66
2022/10/08 12:42:48;;;;;;;;;;;17.10;99.90;;;;;;5072582;28;20454;-66
2022/10/08 12:45:22;;;;;;;;;;;17.00;99.90;;;;;;5072897;28;20062;-66
2022/10/08 12:47:55;;;;;;;;;;;17.10;99.90;;;;;;5072594;28;19971;-66
2022/10/08 12:50:32;;;;;;;;;;;17.10;99.90;;;;;;5072337;28;20586;-65
2022/10/08 12:53:00;;;;;;;;;;;17.00;99.90;;;;;;5072523;28;19967;-67
2022/10/08 12:55:29;;;;;;;;;;;17.20;99.90;;;;;;5072479;28;19978;-66
2022/10/08 12:58:02;;;;;;;;;;;17.40;99.90;;;;;;5072495;28;20053;-66
2022/10/08 13:00:32;;;;;;;;;;;17.60;99.90;;;;;;5071900;28;20056;-66
2022/10/08 13:03:00;;;;;;;;;;;18.40;99.90;;;;;;5072158;28;19973;-67
2022/10/08 13:05:29;;;;;;;;;;;19.40;99.90;;;;;;5072421;28;19966;-67
2022/10/08 13:07:57;;;;;;;;;;;20.40;99.90;;;;;;5072242;28;19970;-67
2022/10/08 13:10:27;;;;;;;;;;;21.10;99.90;;;;;;5072276;28;19971;-66
2022/10/08 13:12:58;;;;;;;;;;;21.40;99.90;;;;;;5071753;28;20443;-67
2022/10/08 13:15:26;;;;;;;;;;;21.70;99.90;;;;;;5072227;28;19970;-67
2022/10/08 13:17:55;;;;;;;;;;;22.30;99.90;;;;;;5071878;28;19966;-67
2022/10/08 13:20:23;;;;;;;;;;;22.40;99.90;;;;;;5071866;28;19968;-67
2022/10/08 13:22:51;;;;;;;;;;;22.40;99.80;;;;;;5071861;28;19968;-66
2022/10/08 13:25:37;;;;;;;;;;;22.60;99.90;;;;;;5072319;28;19994;-66
2022/10/08 13:28:09;;;;;;;;;;;23.00;99.20;;;;;;5071971;28;20367;-67
2022/10/08 13:30:37;;;;;;;;;;;23.10;99.00;;;;;;5071422;28;20460;-67
2022/10/08 13:33:11;;;;;;;;;;;23.10;98.50;;;;;;5071422;28;20066;-67
2022/10/08 13:35:40;;;;;;;;;;;22.60;98.90;;;;;;5071927;28;20435;-66
2022/10/08 13:38:08;;;;;;;;;;;22.60;98.70;;;;;;5041545;28;19990;-67
2022/10/08 13:40:36;;;;;;;;;;;22.30;99.00;;;;;;5040850;28;19971;-66
2022/10/08 13:43:06;;;;;;;;;;;22.10;99.00;;;;;;5041332;28;19971;-67
2022/10/08 13:45:35;;;;;;;;;;;22.50;99.10;;;;;;5040507;28;20461;-67
2022/10/08 13:48:03;;;;;;;;;;;22.80;98.80;;;;;;5040819;28;19972;-67
2022/10/08 13:50:32;;;;;;;;;;;22.80;97.40;;;;;;5039960;28;19967;-67
2022/10/08 13:53:00;;;;;;;;;;;22.90;97.10;;;;;;5041697;28;19976;-66
2022/10/08 13:55:29;;;;;;;;;;;22.20;96.90;;;;;;5040553;28;19972;-66
2022/10/08 13:57:58;;;;;;;;;;;21.50;97.40;;;;;;5040452;28;20421;-67
2022/10/08 14:00:26;;;;;;;;;;;21.10;98.40;;;;;;5042228;28;19985;-66
2022/10/08 14:02:54;;;;;;;;;;;20.60;98.90;;;;;;5041976;28;19999;-66
2022/10/08 14:05:22;;;;;;;;;;;20.20;99.30;;;;;;5042671;28;19971;-67
2022/10/08 14:07:54;;;;;;;;;;;19.90;99.90;;;;;;5041667;28;19977;-66
2022/10/08 14:10:22;;;;;;;;;;;20.10;99.90;;;;;;5043049;28;19970;-66
2022/10/08 14:12:49;;;;;;;;;;;20.20;99.90;;;;;;5044996;28;20438;-66
2022/10/08 14:15:17;;;;;;;;;;;20.00;99.80;;;;;;5045703;28;19962;-66
2022/10/08 14:17:45;;;;;;;;;;;19.80;99.90;;;;;;5053633;28;19977;-66
2022/10/08 14:20:13;;;;;;;;;;;19.60;99.90;;;;;;5053704;28;20049;-66
2022/10/08 14:22:41;;;;;;;;;;;19.60;99.90;;;;;;5055655;28;19974;-66
2022/10/08 14:25:14;;;;;;;;;;;19.50;99.90;;;;;;5055491;28;19973;-66
2022/10/08 14:27:42;;;;;;;;;;;19.40;99.90;;;;;;5054964;28;19970;-66
2022/10/08 14:30:11;;;;;;;;;;;19.20;99.90;;;;;;5054425;28;19981;-66
2022/10/08 14:32:38;;;;;;;;;;;19.00;99.90;;;;;;5055243;28;20378;-65